createdAt,value
2022-08-07T00:00:34.698Z,21.09
2022-08-07T00:03:37.162Z,20.94
2022-08-07T00:06:51.141Z,20.98
2022-08-07T00:10:19.318Z,21.01
2022-08-07T00:13:23.885Z,21.07
2022-08-07T00:16:29.349Z,21.06
2022-08-07T00:19:59.670Z,21.10
2022-08-07T00:22:56.751Z,21.11
2022-08-07T00:26:06.909Z,21.17
2022-08-07T00:29:26.491Z,21.26
2022-08-07T00:32:34.868Z,21.23
2022-08-07T00:35:37.473Z,21.21
2022-08-07T00:38:41.178Z,21.25
2022-08-07T00:41:53.521Z,21.20
2022-08-07T00:45:07.160Z,21.26
2022-08-07T00:48:11.217Z,21.38
2022-08-07T00:51:15.053Z,21.41
2022-08-07T00:54:19.908Z,21.49
2022-08-07T00:57:26.242Z,21.48
2022-08-07T01:00:29.245Z,21.49
2022-08-07T01:03:56.903Z,21.67
2022-08-07T01:06:57.871Z,21.61
2022-08-07T01:10:06.538Z,21.72
2022-08-07T01:13:16.434Z,21.67
2022-08-07T01:16:30.602Z,21.82
2022-08-07T01:19:34.378Z,21.87
2022-08-07T01:22:46.677Z,21.70
2022-08-07T01:25:58.368Z,21.72
2022-08-07T01:29:01.093Z,21.77
2022-08-07T01:32:05.380Z,21.82
2022-08-07T01:35:10.120Z,21.82
2022-08-07T01:38:24.793Z,21.86
2022-08-07T01:41:28.435Z,21.71
2022-08-07T01:44:31.574Z,21.77
2022-08-07T01:48:29.490Z,21.72
2022-08-07T01:51:24.509Z,21.76
2022-08-07T01:54:32.878Z,21.83
2022-08-07T01:58:06.337Z,21.87
2022-08-07T02:01:10.071Z,21.68
2022-08-07T02:04:32.003Z,21.73
2022-08-07T02:07:50.086Z,21.82
2022-08-07T02:10:58.101Z,21.73
2022-08-07T02:14:02.691Z,21.74
2022-08-07T02:17:06.919Z,21.72
2022-08-07T02:20:17.508Z,21.81
2022-08-07T02:23:26.810Z,21.91
2022-08-07T02:26:32.588Z,21.80
2022-08-07T02:29:48.601Z,21.82
2022-08-07T02:33:09.049Z,21.96
2022-08-07T02:36:30.865Z,21.88
2022-08-07T02:39:43.907Z,21.91
2022-08-07T02:43:01.137Z,21.86
2022-08-07T02:46:11.969Z,21.87
2022-08-07T02:49:55.603Z,21.75
2022-08-07T02:52:44.195Z,21.70
2022-08-07T02:56:03.915Z,21.77
2022-08-07T03:02:10.449Z,21.81
2022-08-07T03:05:20.559Z,21.77
2022-08-07T03:08:29.549Z,21.72
2022-08-07T03:11:38.522Z,21.58
2022-08-07T03:14:42.113Z,21.54
2022-08-07T03:17:53.253Z,21.54
2022-08-07T03:20:58.411Z,21.47
2022-08-07T03:24:20.592Z,21.38
2022-08-07T03:27:30.520Z,21.41
2022-08-07T03:30:34.597Z,21.54
2022-08-07T03:33:40.137Z,21.59
2022-08-07T03:36:44.417Z,21.61
2022-08-07T03:39:59.421Z,21.54
2022-08-07T03:43:03.428Z,21.29
2022-08-07T03:46:10.583Z,21.41
2022-08-07T03:49:21.218Z,21.47
2022-08-07T03:52:26.343Z,21.46
2022-08-07T03:55:52.946Z,21.44
2022-08-07T03:59:09.353Z,21.47
2022-08-07T04:02:15.028Z,21.58
2022-08-07T04:05:28.676Z,21.39
2022-08-07T04:08:42.126Z,21.34
2022-08-07T04:12:25.414Z,21.52
2022-08-07T04:15:09.527Z,21.48
2022-08-07T04:18:57.183Z,21.55
2022-08-07T04:21:58.916Z,21.66
2022-08-07T04:25:02.722Z,21.74
2022-08-07T04:28:06.936Z,21.81
2022-08-07T04:31:20.162Z,21.87
2022-08-07T04:34:27.406Z,21.74
2022-08-07T04:40:56.758Z,21.91
2022-08-07T04:44:12.443Z,21.88
2022-08-07T04:48:01.724Z,21.89
2022-08-07T04:51:18.312Z,21.80
2022-08-07T04:54:30.088Z,21.80
2022-08-07T04:58:13.160Z,21.78
2022-08-07T05:01:35.288Z,21.77
2022-08-07T05:04:50.331Z,21.88
2022-08-07T05:07:58.764Z,21.80
2022-08-07T05:11:24.514Z,21.71
2022-08-07T05:14:52.508Z,21.67
2022-08-07T05:18:01.559Z,21.86
2022-08-07T05:21:12.945Z,21.65
2022-08-07T05:24:18.026Z,21.66
2022-08-07T05:28:03.104Z,21.69
2022-08-07T05:30:47.112Z,21.69
2022-08-07T05:34:04.603Z,21.88
2022-08-07T05:37:09.215Z,21.85
2022-08-07T05:40:18.931Z,22.02
2022-08-07T05:43:49.718Z,21.89
2022-08-07T05:46:52.542Z,21.89
2022-08-07T05:49:56.854Z,21.72
2022-08-07T05:53:02.786Z,21.89
2022-08-07T05:56:08.630Z,21.95
2022-08-07T05:59:19.308Z,21.99
2022-08-07T06:02:28.852Z,21.96
2022-08-07T06:05:32.036Z,21.96
2022-08-07T06:08:37.946Z,22.03
2022-08-07T06:11:45.468Z,22.25
2022-08-07T06:14:49.913Z,22.49
2022-08-07T06:17:55.015Z,22.65
2022-08-07T06:22:14.760Z,22.61
2022-08-07T06:24:38.625Z,22.36
2022-08-07T06:28:01.071Z,22.40
2022-08-07T06:31:04.531Z,22.32
2022-08-07T06:34:08.275Z,22.40
2022-08-07T06:37:17.291Z,22.46
2022-08-07T06:40:22.912Z,22.07
2022-08-07T06:43:27.321Z,22.35
2022-08-07T06:46:43.453Z,22.53
2022-08-07T06:49:58.670Z,22.46
2022-08-07T06:53:04.437Z,22.67
2022-08-07T06:56:15.215Z,22.61
2022-08-07T07:00:11.760Z,22.65
2022-08-07T07:02:53.335Z,22.73
2022-08-07T07:06:04.356Z,22.78
2022-08-07T07:09:31.269Z,23.06
2022-08-07T07:12:37.411Z,22.91
2022-08-07T07:15:51.528Z,22.92
2022-08-07T07:19:04.066Z,22.83
2022-08-07T07:22:36.622Z,22.81
2022-08-07T07:26:34.662Z,22.64
2022-08-07T07:29:40.081Z,22.68
2022-08-07T07:32:33.818Z,22.34
2022-08-07T07:35:54.211Z,22.28
2022-08-07T07:39:03.658Z,22.35
2022-08-07T07:42:13.396Z,22.59
2022-08-07T07:45:17.418Z,22.54
2022-08-07T07:48:35.313Z,22.64
2022-08-07T07:51:57.867Z,22.74
2022-08-07T07:55:03.386Z,23.05
2022-08-07T07:58:06.367Z,23.24
2022-08-07T08:02:02.263Z,23.33
2022-08-07T08:04:33.837Z,23.40
2022-08-07T08:07:42.483Z,23.47
2022-08-07T08:11:01.472Z,23.87
2022-08-07T08:14:06.645Z,24.08
2022-08-07T08:17:32.443Z,23.73
2022-08-07T08:20:34.535Z,24.09
2022-08-07T08:23:57.440Z,24.28
2022-08-07T08:27:09.310Z,24.25
2022-08-07T08:30:14.258Z,24.90
2022-08-07T08:33:20.626Z,25.01
2022-08-07T08:36:30.085Z,24.82
2022-08-07T08:39:39.611Z,24.15
2022-08-07T08:43:15.945Z,24.42
2022-08-07T08:46:20.513Z,24.32
2022-08-07T08:49:57.198Z,24.26
2022-08-07T08:52:58.705Z,24.66
2022-08-07T08:56:06.617Z,25.20
2022-08-07T08:59:13.568Z,25.48
2022-08-07T09:02:34.694Z,25.99
2022-08-07T09:05:56.334Z,25.94
2022-08-07T09:09:09.423Z,25.79
2022-08-07T09:12:31.182Z,25.67
2022-08-07T09:16:25.228Z,25.95
2022-08-07T09:19:51.752Z,25.80
2022-08-07T09:24:32.923Z,25.72
2022-08-07T09:26:40.798Z,25.73
2022-08-07T09:30:06.372Z,25.67
2022-08-07T09:33:16.235Z,25.95
2022-08-07T09:36:37.323Z,25.79
2022-08-07T09:39:58.027Z,26.18
2022-08-07T09:43:20.309Z,25.97
2022-08-07T09:47:52.781Z,26.30
2022-08-07T09:50:19.175Z,27.21
2022-08-07T09:53:25.145Z,26.90
2022-08-07T09:56:47.023Z,26.72
2022-08-07T10:00:02.150Z,26.83
2022-08-07T10:04:05.331Z,27.25
2022-08-07T10:07:24.148Z,27.66
2022-08-07T10:10:30.692Z,26.99
2022-08-07T10:13:55.541Z,27.27
2022-08-07T10:17:13.400Z,27.45
2022-08-07T10:20:37.697Z,27.46
2022-08-07T10:24:05.581Z,27.54
2022-08-07T10:27:11.523Z,27.49
2022-08-07T10:30:17.699Z,27.60
2022-08-07T10:33:20.137Z,27.61
2022-08-07T10:36:49.812Z,27.57
2022-08-07T10:40:02.613Z,27.15
2022-08-07T10:43:11.638Z,27.13
2022-08-07T10:46:23.333Z,27.65
2022-08-07T10:49:45.314Z,27.94
2022-08-07T10:53:08.078Z,28.43
2022-08-07T10:56:21.004Z,28.31
2022-08-07T10:59:52.535Z,28.46
2022-08-07T11:03:14.759Z,27.87
2022-08-07T11:06:32.481Z,27.94
2022-08-07T11:10:08.893Z,28.18
2022-08-07T11:13:07.369Z,28.38
2022-08-07T11:16:31.448Z,27.64
2022-08-07T11:19:33.975Z,28.10
2022-08-07T11:22:45.585Z,28.01
2022-08-07T11:26:13.174Z,28.31
2022-08-07T11:29:43.068Z,28.44
2022-08-07T11:32:53.600Z,27.71
2022-08-07T11:36:11.445Z,28.44
2022-08-07T11:39:59.094Z,29.06
2022-08-07T11:43:08.309Z,29.10
2022-08-07T11:46:29.022Z,29.30
2022-08-07T11:50:11.524Z,29.51
2022-08-07T11:53:35.193Z,28.58
2022-08-07T11:56:56.452Z,28.86
2022-08-07T12:00:19.271Z,29.05
2022-08-07T12:03:45.767Z,29.16
2022-08-07T12:07:00.064Z,29.85
2022-08-07T12:10:24.040Z,29.75
2022-08-07T12:13:48.485Z,29.88
2022-08-07T12:16:54.193Z,30.32
2022-08-07T12:20:04.789Z,30.33
2022-08-07T12:23:09.406Z,30.10
2022-08-07T12:26:29.097Z,30.31
2022-08-07T12:29:43.190Z,29.67
2022-08-07T12:33:18.923Z,29.75
2022-08-07T12:36:33.271Z,29.62
2022-08-07T12:39:42.917Z,29.32
2022-08-07T12:42:55.192Z,29.79
2022-08-07T12:45:59.059Z,30.14
2022-08-07T12:49:44.275Z,30.14
2022-08-07T12:53:17.969Z,30.03
2022-08-07T12:56:29.636Z,30.45
2022-08-07T12:59:54.596Z,30.20
2022-08-07T13:03:06.747Z,30.58
2022-08-07T13:06:21.922Z,30.46
2022-08-07T13:10:19.843Z,31.05
2022-08-07T13:13:47.132Z,30.54
2022-08-07T13:16:39.204Z,30.98
2022-08-07T13:19:53.070Z,31.31
2022-08-07T13:23:00.556Z,31.36
2022-08-07T13:26:20.237Z,31.63
2022-08-07T13:29:34.682Z,30.98
2022-08-07T13:32:40.419Z,31.23
2022-08-07T13:36:00.513Z,31.04
2022-08-07T13:39:12.696Z,31.40
2022-08-07T13:42:24.833Z,31.34
2022-08-07T13:46:12.413Z,30.93
2022-08-07T13:48:58.730Z,31.00
2022-08-07T13:52:30.765Z,30.84
2022-08-07T13:55:29.457Z,30.56
2022-08-07T13:58:57.075Z,30.55
2022-08-07T14:02:07.907Z,30.83
2022-08-07T14:05:12.404Z,30.52
2022-08-07T14:08:15.648Z,30.86
2022-08-07T14:11:19.142Z,30.82
2022-08-07T14:14:28.757Z,30.49
2022-08-07T14:18:27.668Z,30.84
2022-08-07T14:20:59.417Z,30.52
2022-08-07T14:24:28.169Z,30.32
2022-08-07T14:28:10.445Z,30.19
2022-08-07T14:31:05.029Z,30.44
2022-08-07T14:34:07.666Z,30.46
2022-08-07T14:37:16.410Z,30.53
2022-08-07T14:40:26.686Z,30.68
2022-08-07T14:43:58.118Z,30.87
2022-08-07T14:50:20.584Z,30.48
2022-08-07T14:53:49.523Z,30.68
2022-08-07T14:56:48.522Z,30.44
2022-08-07T15:00:06.220Z,30.15
2022-08-07T15:03:18.620Z,30.24
2022-08-07T15:06:23.941Z,30.50
2022-08-07T15:09:57.588Z,30.57
2022-08-07T15:12:55.050Z,30.53
2022-08-07T15:16:03.257Z,30.49
2022-08-07T15:19:07.260Z,30.43
2022-08-07T15:22:16.456Z,30.19
2022-08-07T15:25:37.521Z,29.91
2022-08-07T15:28:47.296Z,29.97
2022-08-07T15:36:02.494Z,30.31
2022-08-07T15:38:51.193Z,30.12
2022-08-07T15:45:56.196Z,30.60
2022-08-07T15:49:11.991Z,30.09
2022-08-07T15:52:20.953Z,29.86
2022-08-07T15:55:24.553Z,30.31
2022-08-07T15:58:52.325Z,30.08
2022-08-07T16:02:01.920Z,30.19
2022-08-07T16:05:15.171Z,29.86
2022-08-07T16:08:32.553Z,30.01
2022-08-07T16:11:42.528Z,29.84
2022-08-07T16:14:48.769Z,29.83
2022-08-07T16:18:02.820Z,29.72
2022-08-07T16:22:01.854Z,29.42
2022-08-07T16:25:02.436Z,28.96
2022-08-07T16:29:18.458Z,29.01
2022-08-07T16:31:51.312Z,28.76
2022-08-07T16:35:56.345Z,28.94
2022-08-07T16:39:01.004Z,28.88
2022-08-07T16:42:09.942Z,28.80
2022-08-07T16:46:33.730Z,28.70
2022-08-07T16:50:26.771Z,28.76
2022-08-07T16:52:51.227Z,28.68
2022-08-07T16:55:58.873Z,28.67
2022-08-07T16:59:23.753Z,28.57
2022-08-07T17:02:53.590Z,28.54
2022-08-07T17:06:29.628Z,28.64
2022-08-07T17:10:06.314Z,28.47
2022-08-07T17:13:19.051Z,28.52
2022-08-07T17:16:25.006Z,28.38
2022-08-07T17:20:02.908Z,28.43
2022-08-07T17:22:59.759Z,28.41
2022-08-07T17:26:23.197Z,28.42
2022-08-07T17:30:13.939Z,28.29
2022-08-07T17:34:08.366Z,28.39
2022-08-07T17:36:48.998Z,28.28
2022-08-07T17:40:08.761Z,28.25
2022-08-07T17:43:18.767Z,28.17
2022-08-07T17:46:34.839Z,28.19
2022-08-07T17:49:44.736Z,28.23
2022-08-07T17:52:58.996Z,28.20
2022-08-07T17:56:28.611Z,28.06
2022-08-07T17:59:41.592Z,27.95
2022-08-07T18:02:56.671Z,27.94
2022-08-07T18:06:09.401Z,27.86
2022-08-07T18:09:48.333Z,27.80
2022-08-07T18:13:03.863Z,27.78
2022-08-07T18:16:06.458Z,27.75
2022-08-07T18:21:10.003Z,27.66
2022-08-07T18:22:33.783Z,27.63
2022-08-07T18:25:40.276Z,27.67
2022-08-07T18:29:02.774Z,27.65
2022-08-07T18:32:25.688Z,27.58
2022-08-07T18:35:57.493Z,27.49
2022-08-07T18:40:05.075Z,27.44
2022-08-07T18:42:55.505Z,27.36
2022-08-07T18:46:24.903Z,27.35
2022-08-07T18:50:30.355Z,27.31
2022-08-07T18:53:12.464Z,27.35
2022-08-07T18:56:18.188Z,27.39
2022-08-07T18:59:57.217Z,27.31
2022-08-07T19:02:58.657Z,27.30
2022-08-07T19:06:05.628Z,27.38
2022-08-07T19:09:57.158Z,27.10
2022-08-07T19:12:57.793Z,27.04
2022-08-07T19:17:01.402Z,26.88
2022-08-07T19:19:41.395Z,26.60
2022-08-07T19:22:49.658Z,26.63
2022-08-07T19:26:23.263Z,26.46
2022-08-07T19:31:03.463Z,26.42
2022-08-07T19:32:46.051Z,26.42
2022-08-07T19:35:53.229Z,26.30
2022-08-07T19:38:59.505Z,26.13
2022-08-07T19:42:08.045Z,26.05
2022-08-07T19:46:06.204Z,26.08
2022-08-07T19:49:09.382Z,26.00
2022-08-07T19:52:27.749Z,25.87
2022-08-07T19:55:56.353Z,25.83
2022-08-07T19:58:57.183Z,25.76
2022-08-07T20:02:01.909Z,25.73
2022-08-07T20:05:07.818Z,25.71
2022-08-07T20:08:19.984Z,25.69
2022-08-07T20:12:01.517Z,25.51
2022-08-07T20:14:54.213Z,25.43
2022-08-07T20:18:04.540Z,25.24
2022-08-07T20:21:14.874Z,25.14
2022-08-07T20:24:28.650Z,25.00
2022-08-07T20:27:47.441Z,24.90
2022-08-07T20:30:53.099Z,24.89
2022-08-07T20:33:57.398Z,24.85
2022-08-07T20:37:01.176Z,24.80
2022-08-07T20:40:32.926Z,24.77
2022-08-07T20:43:33.235Z,24.67
2022-08-07T20:46:44.395Z,24.53
2022-08-07T20:49:58.975Z,24.62
2022-08-07T20:53:03.569Z,24.49
2022-08-07T20:56:12.989Z,24.53
2022-08-07T21:00:04.860Z,24.58
2022-08-07T21:03:03.750Z,24.44
2022-08-07T21:06:25.866Z,24.45
2022-08-07T21:09:52.154Z,24.21
2022-08-07T21:12:56.642Z,24.29
2022-08-07T21:16:06.684Z,24.07
2022-08-07T21:19:14.087Z,23.97
2022-08-07T21:22:19.470Z,23.85
2022-08-07T21:25:56.507Z,23.72
2022-08-07T21:29:12.886Z,23.68
2022-08-07T21:32:44.240Z,23.69
2022-08-07T21:36:03.900Z,23.63
2022-08-07T21:39:45.090Z,23.60
2022-08-07T21:42:48.303Z,23.68
2022-08-07T21:46:10.863Z,23.58
2022-08-07T21:50:02.807Z,23.53
2022-08-07T21:53:07.662Z,23.63
2022-08-07T21:56:36.017Z,23.47
2022-08-07T22:00:05.418Z,23.29
2022-08-07T22:03:16.587Z,23.27
2022-08-07T22:06:30.079Z,23.16
2022-08-07T22:09:38.062Z,23.08
2022-08-07T22:13:09.180Z,23.03
2022-08-07T22:16:45.429Z,23.13
2022-08-07T22:20:05.762Z,22.95
2022-08-07T22:23:15.378Z,22.96
2022-08-07T22:26:24.529Z,22.81
2022-08-07T22:29:48.270Z,22.79
2022-08-07T22:33:09.753Z,22.70
2022-08-07T22:36:26.655Z,22.73
2022-08-07T22:39:51.708Z,22.55
2022-08-07T22:43:07.388Z,22.47
2022-08-07T22:47:02.875Z,22.45
2022-08-07T22:50:00.826Z,22.31
2022-08-07T22:53:17.976Z,22.26
2022-08-07T22:56:43.661Z,22.25
2022-08-07T22:59:53.623Z,22.25
2022-08-07T23:03:16.710Z,22.23
2022-08-07T23:06:34.141Z,22.15
2022-08-07T23:10:03.810Z,22.15
2022-08-07T23:14:09.144Z,22.13
2022-08-07T23:17:02.849Z,22.06
2022-08-07T23:20:52.784Z,22.00
2022-08-07T23:24:05.145Z,21.96
2022-08-07T23:27:33.550Z,21.91
2022-08-07T23:34:35.023Z,21.69
2022-08-07T23:38:01.044Z,21.71
2022-08-07T23:41:17.049Z,21.78
2022-08-07T23:44:24.736Z,21.72
2022-08-07T23:47:48.777Z,21.73
2022-08-07T23:51:04.341Z,21.93
2022-08-07T23:54:52.140Z,21.91
2022-08-07T23:58:01.300Z,21.81
